sensor_id;sensor_type;location;lat;lon;timestamp;temperature;humidity
19536;HTU21D;9913;51.168;4.124;2024-03-02T00:01:20;5.82;94.61
19536;HTU21D;9913;51.168;4.124;2024-03-02T00:03:49;5.83;94.60
19536;HTU21D;9913;51.168;4.124;2024-03-02T00:06:20;5.90;94.36
19536;HTU21D;9913;51.168;4.124;2024-03-02T00:08:50;5.87;94.72
19536;HTU21D;9913;51.168;4.124;2024-03-02T00:11:19;5.86;94.59
19536;HTU21D;9913;51.168;4.124;2024-03-02T00:13:48;5.76;94.76
19536;HTU21D;9913;51.168;4.124;2024-03-02T00:16:16;5.69;94.78
19536;HTU21D;9913;51.168;4.124;2024-03-02T00:18:45;5.76;94.43
19536;HTU21D;9913;51.168;4.124;2024-03-02T00:21:14;5.71;94.49
19536;HTU21D;9913;51.168;4.124;2024-03-02T00:23:45;5.57;93.75
19536;HTU21D;9913;51.168;4.124;2024-03-02T00:26:16;5.83;94.65
19536;HTU21D;9913;51.168;4.124;2024-03-02T00:28:44;5.82;94.44
19536;HTU21D;9913;51.168;4.124;2024-03-02T00:31:13;5.71;93.83
19536;HTU21D;9913;51.168;4.124;2024-03-02T00:33:43;5.78;94.04
19536;HTU21D;9913;51.168;4.124;2024-03-02T00:36:13;5.77;94.20
19536;HTU21D;9913;51.168;4.124;2024-03-02T00:38:45;5.72;93.96
19536;HTU21D;9913;51.168;4.124;2024-03-02T00:41:21;5.89;94.52
19536;HTU21D;9913;51.168;4.124;2024-03-02T00:43:57;5.83;93.84
19536;HTU21D;9913;51.168;4.124;2024-03-02T00:46:27;5.85;93.57
19536;HTU21D;9913;51.168;4.124;2024-03-02T00:48:57;5.87;93.56
19536;HTU21D;9913;51.168;4.124;2024-03-02T00:51:29;5.84;93.51
19536;HTU21D;9913;51.168;4.124;2024-03-02T00:53:59;5.81;92.94
19536;HTU21D;9913;51.168;4.124;2024-03-02T00:56:29;5.79;93.46
19536;HTU21D;9913;51.168;4.124;2024-03-02T00:58:58;5.86;93.17
19536;HTU21D;9913;51.168;4.124;2024-03-02T01:01:26;5.79;93.48
19536;HTU21D;9913;51.168;4.124;2024-03-02T01:03:55;5.82;93.20
19536;HTU21D;9913;51.168;4.124;2024-03-02T01:06:23;5.87;92.90
19536;HTU21D;9913;51.168;4.124;2024-03-02T01:08:51;5.90;92.78
19536;HTU21D;9913;51.168;4.124;2024-03-02T01:11:20;5.92;92.82
19536;HTU21D;9913;51.168;4.124;2024-03-02T01:13:51;5.90;92.88
19536;HTU21D;9913;51.168;4.124;2024-03-02T01:16:20;5.93;92.60
19536;HTU21D;9913;51.168;4.124;2024-03-02T01:18:48;5.92;92.13
19536;HTU21D;9913;51.168;4.124;2024-03-02T01:21:17;5.97;92.08
19536;HTU21D;9913;51.168;4.124;2024-03-02T01:23:46;6.02;91.96
19536;HTU21D;9913;51.168;4.124;2024-03-02T01:26:13;6.05;91.69
19536;HTU21D;9913;51.168;4.124;2024-03-02T01:28:41;6.02;91.90
19536;HTU21D;9913;51.168;4.124;2024-03-02T01:31:11;6.08;92.02
19536;HTU21D;9913;51.168;4.124;2024-03-02T01:33:40;6.17;91.89
19536;HTU21D;9913;51.168;4.124;2024-03-02T01:36:08;6.21;91.97
19536;HTU21D;9913;51.168;4.124;2024-03-02T01:38:36;6.15;92.02
19536;HTU21D;9913;51.168;4.124;2024-03-02T01:41:05;6.16;92.24
19536;HTU21D;9913;51.168;4.124;2024-03-02T01:43:33;6.11;92.19
19536;HTU21D;9913;51.168;4.124;2024-03-02T01:46:05;6.15;92.10
19536;HTU21D;9913;51.168;4.124;2024-03-02T01:48:35;6.13;91.98
19536;HTU21D;9913;51.168;4.124;2024-03-02T01:51:04;6.17;92.24
19536;HTU21D;9913;51.168;4.124;2024-03-02T01:53:33;6.14;92.40
19536;HTU21D;9913;51.168;4.124;2024-03-02T01:56:02;6.15;92.28
19536;HTU21D;9913;51.168;4.124;2024-03-02T01:58:30;6.25;92.29
19536;HTU21D;9913;51.168;4.124;2024-03-02T02:00:59;6.15;92.08
19536;HTU21D;9913;51.168;4.124;2024-03-02T02:03:27;6.11;92.50
19536;HTU21D;9913;51.168;4.124;2024-03-02T02:05:57;6.08;92.87
19536;HTU21D;9913;51.168;4.124;2024-03-02T02:08:26;6.06;92.63
19536;HTU21D;9913;51.168;4.124;2024-03-02T02:10:54;5.99;92.62
19536;HTU21D;9913;51.168;4.124;2024-03-02T02:13:22;6.01;92.78
19536;HTU21D;9913;51.168;4.124;2024-03-02T02:15:51;6.05;92.64
19536;HTU21D;9913;51.168;4.124;2024-03-02T02:18:20;6.02;92.86
19536;HTU21D;9913;51.168;4.124;2024-03-02T02:20:48;6.06;92.77
19536;HTU21D;9913;51.168;4.124;2024-03-02T02:23:18;6.06;92.64
19536;HTU21D;9913;51.168;4.124;2024-03-02T02:25:47;5.98;92.63
19536;HTU21D;9913;51.168;4.124;2024-03-02T02:28:15;5.93;92.80
19536;HTU21D;9913;51.168;4.124;2024-03-02T02:30:43;5.91;93.16
19536;HTU21D;9913;51.168;4.124;2024-03-02T02:33:12;5.87;92.79
19536;HTU21D;9913;51.168;4.124;2024-03-02T02:35:40;5.79;92.92
19536;HTU21D;9913;51.168;4.124;2024-03-02T02:38:09;5.74;93.13
19536;HTU21D;9913;51.168;4.124;2024-03-02T02:40:37;5.71;93.31
19536;HTU21D;9913;51.168;4.124;2024-03-02T02:43:06;5.69;93.37
19536;HTU21D;9913;51.168;4.124;2024-03-02T02:45:34;5.74;93.21
19536;HTU21D;9913;51.168;4.124;2024-03-02T02:48:03;5.70;93.33
19536;HTU21D;9913;51.168;4.124;2024-03-02T02:50:32;5.70;93.14
19536;HTU21D;9913;51.168;4.124;2024-03-02T02:53:00;5.74;93.32
19536;HTU21D;9913;51.168;4.124;2024-03-02T02:55:28;5.71;93.27
19536;HTU21D;9913;51.168;4.124;2024-03-02T02:57:58;5.64;93.27
19536;HTU21D;9913;51.168;4.124;2024-03-02T03:00:26;5.62;93.42
19536;HTU21D;9913;51.168;4.124;2024-03-02T03:02:55;5.59;93.59
19536;HTU21D;9913;51.168;4.124;2024-03-02T03:05:23;5.62;93.66
19536;HTU21D;9913;51.168;4.124;2024-03-02T03:07:51;5.68;93.47
19536;HTU21D;9913;51.168;4.124;2024-03-02T03:10:20;5.72;93.41
19536;HTU21D;9913;51.168;4.124;2024-03-02T03:12:52;5.77;93.30
19536;HTU21D;9913;51.168;4.124;2024-03-02T03:15:21;5.79;93.14
19536;HTU21D;9913;51.168;4.124;2024-03-02T03:17:50;5.86;93.02
19536;HTU21D;9913;51.168;4.124;2024-03-02T03:20:18;5.92;92.89
19536;HTU21D;9913;51.168;4.124;2024-03-02T03:22:48;5.92;92.88
19536;HTU21D;9913;51.168;4.124;2024-03-02T03:25:16;5.93;93.10
19536;HTU21D;9913;51.168;4.124;2024-03-02T03:27:45;5.95;93.02
19536;HTU21D;9913;51.168;4.124;2024-03-02T03:30:14;5.96;92.83
19536;HTU21D;9913;51.168;4.124;2024-03-02T03:32:44;5.97;92.82
19536;HTU21D;9913;51.168;4.124;2024-03-02T03:35:12;6.06;92.92
19536;HTU21D;9913;51.168;4.124;2024-03-02T03:37:42;6.00;92.85
19536;HTU21D;9913;51.168;4.124;2024-03-02T03:40:11;6.05;92.93
19536;HTU21D;9913;51.168;4.124;2024-03-02T03:42:40;6.04;92.82
19536;HTU21D;9913;51.168;4.124;2024-03-02T03:45:09;6.10;92.77
19536;HTU21D;9913;51.168;4.124;2024-03-02T03:47:37;6.09;92.88
19536;HTU21D;9913;51.168;4.124;2024-03-02T03:50:08;6.08;93.20
19536;HTU21D;9913;51.168;4.124;2024-03-02T03:52:36;6.10;92.82
19536;HTU21D;9913;51.168;4.124;2024-03-02T03:55:05;6.12;92.77
19536;HTU21D;9913;51.168;4.124;2024-03-02T03:57:34;6.16;92.88
19536;HTU21D;9913;51.168;4.124;2024-03-02T04:00:03;6.16;92.86
19536;HTU21D;9913;51.168;4.124;2024-03-02T04:02:40;6.20;93.17
19536;HTU21D;9913;51.168;4.124;2024-03-02T04:05:10;6.19;92.97
19536;HTU21D;9913;51.168;4.124;2024-03-02T04:07:39;6.20;93.21
19536;HTU21D;9913;51.168;4.124;2024-03-02T04:10:09;6.20;93.27
19536;HTU21D;9913;51.168;4.124;2024-03-02T04:12:39;6.20;93.57
19536;HTU21D;9913;51.168;4.124;2024-03-02T04:15:07;6.22;93.43
19536;HTU21D;9913;51.168;4.124;2024-03-02T04:17:36;6.15;93.52
19536;HTU21D;9913;51.168;4.124;2024-03-02T04:20:05;6.19;93.73
19536;HTU21D;9913;51.168;4.124;2024-03-02T04:22:36;6.16;93.57
19536;HTU21D;9913;51.168;4.124;2024-03-02T04:25:04;6.17;93.54
19536;HTU21D;9913;51.168;4.124;2024-03-02T04:27:34;6.21;93.98
19536;HTU21D;9913;51.168;4.124;2024-03-02T04:30:04;6.23;93.44
19536;HTU21D;9913;51.168;4.124;2024-03-02T04:32:33;6.20;94.08
19536;HTU21D;9913;51.168;4.124;2024-03-02T04:35:04;6.21;94.03
19536;HTU21D;9913;51.168;4.124;2024-03-02T04:37:35;6.20;94.58
19536;HTU21D;9913;51.168;4.124;2024-03-02T04:40:05;6.19;94.69
19536;HTU21D;9913;51.168;4.124;2024-03-02T04:42:36;6.15;94.88
19536;HTU21D;9913;51.168;4.124;2024-03-02T04:45:05;6.13;94.40
19536;HTU21D;9913;51.168;4.124;2024-03-02T04:47:34;6.02;94.91
19536;HTU21D;9913;51.168;4.124;2024-03-02T04:50:02;6.01;95.16
19536;HTU21D;9913;51.168;4.124;2024-03-02T04:52:31;6.02;94.65
19536;HTU21D;9913;51.168;4.124;2024-03-02T04:55:00;5.97;94.95
19536;HTU21D;9913;51.168;4.124;2024-03-02T04:57:51;5.94;95.35
19536;HTU21D;9913;51.168;4.124;2024-03-02T05:00:21;5.99;96.17
19536;HTU21D;9913;51.168;4.124;2024-03-02T05:02:50;5.97;95.01
19536;HTU21D;9913;51.168;4.124;2024-03-02T05:05:19;6.00;96.62
19536;HTU21D;9913;51.168;4.124;2024-03-02T05:07:47;5.97;95.81
19536;HTU21D;9913;51.168;4.124;2024-03-02T05:10:17;5.92;95.41
19536;HTU21D;9913;51.168;4.124;2024-03-02T05:12:45;5.81;95.18
19536;HTU21D;9913;51.168;4.124;2024-03-02T05:15:24;5.78;95.18
19536;HTU21D;9913;51.168;4.124;2024-03-02T05:17:53;5.75;95.74
19536;HTU21D;9913;51.168;4.124;2024-03-02T05:20:21;5.72;95.74
19536;HTU21D;9913;51.168;4.124;2024-03-02T05:22:49;5.69;95.68
19536;HTU21D;9913;51.168;4.124;2024-03-02T05:25:19;5.62;95.25
19536;HTU21D;9913;51.168;4.124;2024-03-02T05:27:48;5.54;95.52
19536;HTU21D;9913;51.168;4.124;2024-03-02T05:30:16;5.55;95.65
19536;HTU21D;9913;51.168;4.124;2024-03-02T05:32:44;5.62;95.89
19536;HTU21D;9913;51.168;4.124;2024-03-02T05:35:13;5.55;95.36
19536;HTU21D;9913;51.168;4.124;2024-03-02T05:37:41;5.51;95.52
19536;HTU21D;9913;51.168;4.124;2024-03-02T05:40:10;5.51;96.02
19536;HTU21D;9913;51.168;4.124;2024-03-02T05:42:41;5.49;95.34
19536;HTU21D;9913;51.168;4.124;2024-03-02T05:45:10;5.49;95.48
19536;HTU21D;9913;51.168;4.124;2024-03-02T05:47:38;5.42;95.55
19536;HTU21D;9913;51.168;4.124;2024-03-02T05:50:07;5.50;95.88
19536;HTU21D;9913;51.168;4.124;2024-03-02T05:52:35;5.43;95.76
19536;HTU21D;9913;51.168;4.124;2024-03-02T05:55:04;5.48;95.57
19536;HTU21D;9913;51.168;4.124;2024-03-02T05:57:32;5.46;95.19
19536;HTU21D;9913;51.168;4.124;2024-03-02T06:00:16;5.42;95.63
19536;HTU21D;9913;51.168;4.124;2024-03-02T06:02:45;5.37;95.41
19536;HTU21D;9913;51.168;4.124;2024-03-02T06:05:13;5.32;95.49
19536;HTU21D;9913;51.168;4.124;2024-03-02T06:07:43;5.31;95.46
19536;HTU21D;9913;51.168;4.124;2024-03-02T06:10:11;5.31;95.59
19536;HTU21D;9913;51.168;4.124;2024-03-02T06:12:40;5.26;95.52
19536;HTU21D;9913;51.168;4.124;2024-03-02T06:15:09;5.23;95.57
19536;HTU21D;9913;51.168;4.124;2024-03-02T06:17:39;5.21;95.32
19536;HTU21D;9913;51.168;4.124;2024-03-02T06:20:08;5.20;95.51
19536;HTU21D;9913;51.168;4.124;2024-03-02T06:22:37;5.24;95.62
19536;HTU21D;9913;51.168;4.124;2024-03-02T06:25:05;5.20;95.52
19536;HTU21D;9913;51.168;4.124;2024-03-02T06:27:34;5.17;95.61
19536;HTU21D;9913;51.168;4.124;2024-03-02T06:30:03;5.20;95.42
19536;HTU21D;9913;51.168;4.124;2024-03-02T06:32:31;5.19;95.65
19536;HTU21D;9913;51.168;4.124;2024-03-02T06:35:01;5.17;95.60
19536;HTU21D;9913;51.168;4.124;2024-03-02T06:37:31;5.15;95.72
19536;HTU21D;9913;51.168;4.124;2024-03-02T06:39:59;5.12;95.52
19536;HTU21D;9913;51.168;4.124;2024-03-02T06:42:28;5.13;95.55
19536;HTU21D;9913;51.168;4.124;2024-03-02T06:45:00;5.15;95.66
19536;HTU21D;9913;51.168;4.124;2024-03-02T06:47:30;5.16;95.55
19536;HTU21D;9913;51.168;4.124;2024-03-02T06:49:58;5.15;95.56
19536;HTU21D;9913;51.168;4.124;2024-03-02T06:52:28;5.15;95.52
19536;HTU21D;9913;51.168;4.124;2024-03-02T06:54:56;5.20;95.72
19536;HTU21D;9913;51.168;4.124;2024-03-02T06:57:25;5.16;95.42
19536;HTU21D;9913;51.168;4.124;2024-03-02T06:59:54;5.13;95.56
19536;HTU21D;9913;51.168;4.124;2024-03-02T07:02:25;5.18;95.42
19536;HTU21D;9913;51.168;4.124;2024-03-02T07:04:54;5.22;95.75
19536;HTU21D;9913;51.168;4.124;2024-03-02T07:07:23;5.24;95.68
19536;HTU21D;9913;51.168;4.124;2024-03-02T07:09:52;5.27;95.76
19536;HTU21D;9913;51.168;4.124;2024-03-02T07:12:21;5.28;95.55
19536;HTU21D;9913;51.168;4.124;2024-03-02T07:14:49;5.32;95.39
19536;HTU21D;9913;51.168;4.124;2024-03-02T07:17:38;5.36;95.47
19536;HTU21D;9913;51.168;4.124;2024-03-02T07:20:07;5.40;95.65
19536;HTU21D;9913;51.168;4.124;2024-03-02T07:22:35;5.47;95.79
19536;HTU21D;9913;51.168;4.124;2024-03-02T07:25:09;5.50;95.66
19536;HTU21D;9913;51.168;4.124;2024-03-02T07:27:57;5.55;95.78
19536;HTU21D;9913;51.168;4.124;2024-03-02T07:30:26;5.54;95.83
19536;HTU21D;9913;51.168;4.124;2024-03-02T07:32:57;5.60;95.55
19536;HTU21D;9913;51.168;4.124;2024-03-02T07:35:26;5.66;95.85
19536;HTU21D;9913;51.168;4.124;2024-03-02T07:37:54;5.70;95.96
19536;HTU21D;9913;51.168;4.124;2024-03-02T07:40:26;5.77;95.66
19536;HTU21D;9913;51.168;4.124;2024-03-02T07:42:54;5.83;95.97
19536;HTU21D;9913;51.168;4.124;2024-03-02T07:45:23;5.86;95.97
19536;HTU21D;9913;51.168;4.124;2024-03-02T07:47:51;5.97;96.00
19536;HTU21D;9913;51.168;4.124;2024-03-02T07:50:20;5.96;96.01
19536;HTU21D;9913;51.168;4.124;2024-03-02T07:52:48;5.99;95.70
19536;HTU21D;9913;51.168;4.124;2024-03-02T07:55:17;6.04;95.54
19536;HTU21D;9913;51.168;4.124;2024-03-02T07:57:46;6.08;96.27
19536;HTU21D;9913;51.168;4.124;2024-03-02T08:00:15;6.12;96.14
19536;HTU21D;9913;51.168;4.124;2024-03-02T08:02:44;6.15;95.71
19536;HTU21D;9913;51.168;4.124;2024-03-02T08:05:13;6.20;96.27
19536;HTU21D;9913;51.168;4.124;2024-03-02T08:07:41;6.28;95.64
19536;HTU21D;9913;51.168;4.124;2024-03-02T08:10:10;6.41;96.37
19536;HTU21D;9913;51.168;4.124;2024-03-02T08:12:38;6.41;96.28
19536;HTU21D;9913;51.168;4.124;2024-03-02T08:15:08;6.48;96.00
19536;HTU21D;9913;51.168;4.124;2024-03-02T08:17:37;6.60;96.64
19536;HTU21D;9913;51.168;4.124;2024-03-02T08:20:08;6.66;96.82
19536;HTU21D;9913;51.168;4.124;2024-03-02T08:22:37;6.66;96.80
19536;HTU21D;9913;51.168;4.124;2024-03-02T08:25:05;6.75;96.26
19536;HTU21D;9913;51.168;4.124;2024-03-02T08:27:35;6.81;96.86
19536;HTU21D;9913;51.168;4.124;2024-03-02T08:30:06;6.86;97.64
19536;HTU21D;9913;51.168;4.124;2024-03-02T08:32:36;6.96;98.09
19536;HTU21D;9913;51.168;4.124;2024-03-02T08:35:06;7.05;98.06
19536;HTU21D;9913;51.168;4.124;2024-03-02T08:37:35;7.09;97.07
19536;HTU21D;9913;51.168;4.124;2024-03-02T08:40:08;7.15;97.87
19536;HTU21D;9913;51.168;4.124;2024-03-02T08:42:39;7.27;98.33
19536;HTU21D;9913;51.168;4.124;2024-03-02T08:45:08;7.31;98.80
19536;HTU21D;9913;51.168;4.124;2024-03-02T08:47:38;7.31;99.34
19536;HTU21D;9913;51.168;4.124;2024-03-02T08:50:08;7.41;99.03
19536;HTU21D;9913;51.168;4.124;2024-03-02T08:52:36;7.54;98.71
19536;HTU21D;9913;51.168;4.124;2024-03-02T08:55:05;7.47;98.11
19536;HTU21D;9913;51.168;4.124;2024-03-02T08:57:34;7.44;99.23
19536;HTU21D;9913;51.168;4.124;2024-03-02T09:00:03;7.31;98.86
19536;HTU21D;9913;51.168;4.124;2024-03-02T09:02:34;7.35;98.03
19536;HTU21D;9913;51.168;4.124;2024-03-02T09:05:06;7.58;99.73
19536;HTU21D;9913;51.168;4.124;2024-03-02T09:07:35;7.81;99.67
19536;HTU21D;9913;51.168;4.124;2024-03-02T09:10:06;7.91;99.63
19536;HTU21D;9913;51.168;4.124;2024-03-02T09:12:35;8.09;99.79
19536;HTU21D;9913;51.168;4.124;2024-03-02T09:15:04;8.12;100.89
19536;HTU21D;9913;51.168;4.124;2024-03-02T09:17:33;7.93;100.42
19536;HTU21D;9913;51.168;4.124;2024-03-02T09:20:01;8.09;100.44
19536;HTU21D;9913;51.168;4.124;2024-03-02T09:22:32;8.26;100.64
19536;HTU21D;9913;51.168;4.124;2024-03-02T09:25:00;8.49;100.77
19536;HTU21D;9913;51.168;4.124;2024-03-02T09:27:29;8.56;101.16
19536;HTU21D;9913;51.168;4.124;2024-03-02T09:29:57;8.60;101.79
19536;HTU21D;9913;51.168;4.124;2024-03-02T09:32:26;8.77;103.54
19536;HTU21D;9913;51.168;4.124;2024-03-02T09:34:54;9.16;103.76
19536;HTU21D;9913;51.168;4.124;2024-03-02T09:37:23;9.17;103.94
19536;HTU21D;9913;51.168;4.124;2024-03-02T09:39:52;9.05;101.83
19536;HTU21D;9913;51.168;4.124;2024-03-02T09:42:21;9.10;103.04
19536;HTU21D;9913;51.168;4.124;2024-03-02T09:44:51;9.16;103.18
19536;HTU21D;9913;51.168;4.124;2024-03-02T09:47:19;9.14;103.68
19536;HTU21D;9913;51.168;4.124;2024-03-02T09:49:47;8.92;104.40
19536;HTU21D;9913;51.168;4.124;2024-03-02T09:52:16;8.81;103.77
19536;HTU21D;9913;51.168;4.124;2024-03-02T09:54:47;9.02;102.96
19536;HTU21D;9913;51.168;4.124;2024-03-02T09:57:17;9.11;102.98
19536;HTU21D;9913;51.168;4.124;2024-03-02T09:59:45;9.37;103.26
19536;HTU21D;9913;51.168;4.124;2024-03-02T10:02:14;9.42;104.34
19536;HTU21D;9913;51.168;4.124;2024-03-02T10:04:42;9.25;102.50
19536;HTU21D;9913;51.168;4.124;2024-03-02T10:07:13;9.37;104.15
19536;HTU21D;9913;51.168;4.124;2024-03-02T10:09:43;9.30;102.86
19536;HTU21D;9913;51.168;4.124;2024-03-02T10:12:14;9.32;105.42
19536;HTU21D;9913;51.168;4.124;2024-03-02T10:14:45;9.37;102.77
19536;HTU21D;9913;51.168;4.124;2024-03-02T10:17:17;9.42;106.11
19536;HTU21D;9913;51.168;4.124;2024-03-02T10:19:45;9.93;104.21
19536;HTU21D;9913;51.168;4.124;2024-03-02T10:22:14;9.66;104.24
19536;HTU21D;9913;51.168;4.124;2024-03-02T10:24:43;9.56;103.25
19536;HTU21D;9913;51.168;4.124;2024-03-02T10:27:16;9.47;104.23
19536;HTU21D;9913;51.168;4.124;2024-03-02T10:29:47;9.46;105.27
19536;HTU21D;9913;51.168;4.124;2024-03-02T10:32:16;9.47;103.17
19536;HTU21D;9913;51.168;4.124;2024-03-02T10:34:45;9.57;105.37
19536;HTU21D;9913;51.168;4.124;2024-03-02T10:37:15;9.67;104.50
19536;HTU21D;9913;51.168;4.124;2024-03-02T10:39:45;9.67;105.63
19536;HTU21D;9913;51.168;4.124;2024-03-02T10:42:15;9.71;105.03
19536;HTU21D;9913;51.168;4.124;2024-03-02T10:44:44;9.70;106.30
19536;HTU21D;9913;51.168;4.124;2024-03-02T10:47:15;9.78;105.58
19536;HTU21D;9913;51.168;4.124;2024-03-02T10:49:46;10.05;104.37
19536;HTU21D;9913;51.168;4.124;2024-03-02T10:52:16;10.11;104.00
19536;HTU21D;9913;51.168;4.124;2024-03-02T10:54:44;9.99;106.06
19536;HTU21D;9913;51.168;4.124;2024-03-02T10:57:14;10.26;104.08
19536;HTU21D;9913;51.168;4.124;2024-03-02T10:59:52;10.48;105.18
19536;HTU21D;9913;51.168;4.124;2024-03-02T11:02:24;10.79;106.15
19536;HTU21D;9913;51.168;4.124;2024-03-02T11:04:55;10.69;107.08
19536;HTU21D;9913;51.168;4.124;2024-03-02T11:07:25;10.77;104.72
19536;HTU21D;9913;51.168;4.124;2024-03-02T11:09:58;10.41;106.83
19536;HTU21D;9913;51.168;4.124;2024-03-02T11:12:29;10.45;105.58
19536;HTU21D;9913;51.168;4.124;2024-03-02T11:15:00;10.83;106.58
19536;HTU21D;9913;51.168;4.124;2024-03-02T11:17:31;10.89;107.08
19536;HTU21D;9913;51.168;4.124;2024-03-02T11:20:00;10.79;104.68
19536;HTU21D;9913;51.168;4.124;2024-03-02T11:22:29;11.10;106.35
19536;HTU21D;9913;51.168;4.124;2024-03-02T11:24:57;11.32;106.69
19536;HTU21D;9913;51.168;4.124;2024-03-02T11:28:04;11.69;107.62
19536;HTU21D;9913;51.168;4.124;2024-03-02T11:30:52;11.58;106.95
19536;HTU21D;9913;51.168;4.124;2024-03-02T11:33:26;11.45;107.16
19536;HTU21D;9913;51.168;4.124;2024-03-02T11:35:57;11.81;107.09
19536;HTU21D;9913;51.168;4.124;2024-03-02T11:38:30;11.54;106.51
19536;HTU21D;9913;51.168;4.124;2024-03-02T11:41:01;11.84;107.41
19536;HTU21D;9913;51.168;4.124;2024-03-02T11:43:29;11.73;105.62
19536;HTU21D;9913;51.168;4.124;2024-03-02T11:45:59;11.39;107.06
19536;HTU21D;9913;51.168;4.124;2024-03-02T11:48:33;11.14;105.41
19536;HTU21D;9913;51.168;4.124;2024-03-02T11:51:03;11.20;107.50
19536;HTU21D;9913;51.168;4.124;2024-03-02T11:53:32;11.34;105.66
19536;HTU21D;9913;51.168;4.124;2024-03-02T11:56:02;11.38;106.55
19536;HTU21D;9913;51.168;4.124;2024-03-02T11:58:34;11.18;107.82
19536;HTU21D;9913;51.168;4.124;2024-03-02T12:01:04;11.12;106.16
19536;HTU21D;9913;51.168;4.124;2024-03-02T12:03:34;11.18;105.22
19536;HTU21D;9913;51.168;4.124;2024-03-02T12:06:04;11.10;107.10
19536;HTU21D;9913;51.168;4.124;2024-03-02T12:08:33;11.12;107.06
19536;HTU21D;9913;51.168;4.124;2024-03-02T12:11:02;11.19;106.72
19536;HTU21D;9913;51.168;4.124;2024-03-02T12:13:31;11.14;106.81
19536;HTU21D;9913;51.168;4.124;2024-03-02T12:16:00;11.03;106.99
19536;HTU21D;9913;51.168;4.124;2024-03-02T12:18:29;11.14;106.07
19536;HTU21D;9913;51.168;4.124;2024-03-02T12:20:59;10.92;106.33
19536;HTU21D;9913;51.168;4.124;2024-03-02T12:23:30;11.10;105.49
19536;HTU21D;9913;51.168;4.124;2024-03-02T12:25:58;11.03;105.46
19536;HTU21D;9913;51.168;4.124;2024-03-02T12:28:27;10.93;105.99
19536;HTU21D;9913;51.168;4.124;2024-03-02T12:30:57;10.83;105.98
19536;HTU21D;9913;51.168;4.124;2024-03-02T12:33:26;10.94;107.16
19536;HTU21D;9913;51.168;4.124;2024-03-02T12:35:56;11.11;105.90
19536;HTU21D;9913;51.168;4.124;2024-03-02T12:38:27;11.40;106.35
19536;HTU21D;9913;51.168;4.124;2024-03-02T12:40:56;11.36;103.28
19536;HTU21D;9913;51.168;4.124;2024-03-02T12:43:30;11.32;103.14
19536;HTU21D;9913;51.168;4.124;2024-03-02T12:45:58;11.03;105.06
19536;HTU21D;9913;51.168;4.124;2024-03-02T12:48:27;11.16;103.46
19536;HTU21D;9913;51.168;4.124;2024-03-02T12:50:55;11.27;103.91
19536;HTU21D;9913;51.168;4.124;2024-03-02T12:53:23;11.26;105.41
19536;HTU21D;9913;51.168;4.124;2024-03-02T12:55:53;11.39;104.24
19536;HTU21D;9913;51.168;4.124;2024-03-02T12:58:22;11.53;106.58
19536;HTU21D;9913;51.168;4.124;2024-03-02T13:01:05;11.57;104.63
19536;HTU21D;9913;51.168;4.124;2024-03-02T13:03:35;11.51;106.24
19536;HTU21D;9913;51.168;4.124;2024-03-02T13:06:04;11.39;103.71
19536;HTU21D;9913;51.168;4.124;2024-03-02T13:08:33;11.42;103.90
19536;HTU21D;9913;51.168;4.124;2024-03-02T13:11:03;11.38;105.71
19536;HTU21D;9913;51.168;4.124;2024-03-02T13:13:34;11.34;104.50
19536;HTU21D;9913;51.168;4.124;2024-03-02T13:16:03;11.41;104.98
19536;HTU21D;9913;51.168;4.124;2024-03-02T13:18:33;11.30;104.17
19536;HTU21D;9913;51.168;4.124;2024-03-02T13:21:02;11.37;105.64
19536;HTU21D;9913;51.168;4.124;2024-03-02T13:23:30;11.32;104.22
19536;HTU21D;9913;51.168;4.124;2024-03-02T13:25:59;11.33;105.50
19536;HTU21D;9913;51.168;4.124;2024-03-02T13:28:29;11.37;106.77
19536;HTU21D;9913;51.168;4.124;2024-03-02T13:30:58;11.32;105.04
19536;HTU21D;9913;51.168;4.124;2024-03-02T13:33:26;11.24;106.12
19536;HTU21D;9913;51.168;4.124;2024-03-02T13:35:54;11.27;105.05
19536;HTU21D;9913;51.168;4.124;2024-03-02T13:38:23;11.26;105.72
19536;HTU21D;9913;51.168;4.124;2024-03-02T13:40:51;11.22;104.04
19536;HTU21D;9913;51.168;4.124;2024-03-02T13:43:19;11.20;104.89
19536;HTU21D;9913;51.168;4.124;2024-03-02T13:45:49;11.18;105.01
19536;HTU21D;9913;51.168;4.124;2024-03-02T13:48:19;11.11;106.78
19536;HTU21D;9913;51.168;4.124;2024-03-02T13:50:48;11.18;105.21
19536;HTU21D;9913;51.168;4.124;2024-03-02T13:53:16;11.12;105.18
19536;HTU21D;9913;51.168;4.124;2024-03-02T13:55:44;11.14;105.84
19536;HTU21D;9913;51.168;4.124;2024-03-02T13:58:13;11.20;104.99
19536;HTU21D;9913;51.168;4.124;2024-03-02T14:00:42;11.22;104.87
19536;HTU21D;9913;51.168;4.124;2024-03-02T14:03:14;11.18;107.13
19536;HTU21D;9913;51.168;4.124;2024-03-02T14:05:43;11.18;105.18
19536;HTU21D;9913;51.168;4.124;2024-03-02T14:08:13;11.22;104.18
19536;HTU21D;9913;51.168;4.124;2024-03-02T14:10:41;11.24;104.60
19536;HTU21D;9913;51.168;4.124;2024-03-02T14:13:10;11.20;106.32
19536;HTU21D;9913;51.168;4.124;2024-03-02T14:15:38;11.18;105.57
19536;HTU21D;9913;51.168;4.124;2024-03-02T14:18:07;11.18;103.99
19536;HTU21D;9913;51.168;4.124;2024-03-02T14:20:38;11.11;105.43
19536;HTU21D;9913;51.168;4.124;2024-03-02T14:23:09;11.12;104.78
19536;HTU21D;9913;51.168;4.124;2024-03-02T14:25:38;11.08;103.71
19536;HTU21D;9913;51.168;4.124;2024-03-02T14:28:06;11.04;103.37
19536;HTU21D;9913;51.168;4.124;2024-03-02T14:30:54;11.03;103.09
19536;HTU21D;9913;51.168;4.124;2024-03-02T14:33:23;11.07;105.04
19536;HTU21D;9913;51.168;4.124;2024-03-02T14:35:53;11.12;102.49
19536;HTU21D;9913;51.168;4.124;2024-03-02T14:38:21;11.24;101.05
19536;HTU21D;9913;51.168;4.124;2024-03-02T14:40:50;11.25;102.08
19536;HTU21D;9913;51.168;4.124;2024-03-02T14:43:20;11.14;101.35
19536;HTU21D;9913;51.168;4.124;2024-03-02T14:45:48;11.13;100.32
19536;HTU21D;9913;51.168;4.124;2024-03-02T14:48:17;11.00;101.75
19536;HTU21D;9913;51.168;4.124;2024-03-02T14:50:46;10.92;101.24
19536;HTU21D;9913;51.168;4.124;2024-03-02T14:53:15;10.87;100.58
19536;HTU21D;9913;51.168;4.124;2024-03-02T14:55:44;10.81;101.51
19536;HTU21D;9913;51.168;4.124;2024-03-02T14:58:13;10.78;101.10
19536;HTU21D;9913;51.168;4.124;2024-03-02T15:00:41;10.77;100.66
19536;HTU21D;9913;51.168;4.124;2024-03-02T15:03:09;10.82;102.32
19536;HTU21D;9913;51.168;4.124;2024-03-02T15:05:38;10.79;100.21
19536;HTU21D;9913;51.168;4.124;2024-03-02T15:08:07;10.78;101.15
19536;HTU21D;9913;51.168;4.124;2024-03-02T15:10:37;10.82;99.83
19536;HTU21D;9913;51.168;4.124;2024-03-02T15:13:07;10.78;100.70
19536;HTU21D;9913;51.168;4.124;2024-03-02T15:15:35;10.68;99.53
19536;HTU21D;9913;51.168;4.124;2024-03-02T15:18:04;10.69;98.55
19536;HTU21D;9913;51.168;4.124;2024-03-02T15:20:33;10.55;98.59
19536;HTU21D;9913;51.168;4.124;2024-03-02T15:23:01;10.43;97.91
19536;HTU21D;9913;51.168;4.124;2024-03-02T15:25:30;10.38;97.23
19536;HTU21D;9913;51.168;4.124;2024-03-02T15:28:00;10.34;96.42
19536;HTU21D;9913;51.168;4.124;2024-03-02T15:30:28;10.35;97.74
19536;HTU21D;9913;51.168;4.124;2024-03-02T15:32:56;10.34;97.75
19536;HTU21D;9913;51.168;4.124;2024-03-02T15:35:25;10.31;97.01
19536;HTU21D;9913;51.168;4.124;2024-03-02T15:37:53;10.31;96.46
19536;HTU21D;9913;51.168;4.124;2024-03-02T15:40:22;10.34;96.13
19536;HTU21D;9913;51.168;4.124;2024-03-02T15:42:50;10.41;96.11
19536;HTU21D;9913;51.168;4.124;2024-03-02T15:45:20;10.40;96.28
19536;HTU21D;9913;51.168;4.124;2024-03-02T15:47:48;10.42;97.29
19536;HTU21D;9913;51.168;4.124;2024-03-02T15:50:17;10.40;97.52